sensor_id;sensor_type;location;lat;lon;timestamp;temperature;humidity
74511;DHT22;62991;50.040;18.400;2023-04-03T00:02:44;3.40;71.90
74511;DHT22;62991;50.040;18.400;2023-04-03T00:05:45;3.30;72.70
74511;DHT22;62991;50.040;18.400;2023-04-03T00:08:46;3.40;72.70
74511;DHT22;62991;50.040;18.400;2023-04-03T00:11:47;3.40;72.80
74511;DHT22;62991;50.040;18.400;2023-04-03T00:14:48;3.40;72.70
74511;DHT22;62991;50.040;18.400;2023-04-03T00:17:48;3.40;72.70
74511;DHT22;62991;50.040;18.400;2023-04-03T00:20:49;3.60;72.30
74511;DHT22;62991;50.040;18.400;2023-04-03T00:23:50;3.50;72.90
74511;DHT22;62991;50.040;18.400;2023-04-03T00:26:51;3.60;72.50
74511;DHT22;62991;50.040;18.400;2023-04-03T00:29:51;3.60;72.50
74511;DHT22;62991;50.040;18.400;2023-04-03T00:32:53;3.60;72.60
74511;DHT22;62991;50.040;18.400;2023-04-03T00:35:53;3.60;73.10
74511;DHT22;62991;50.040;18.400;2023-04-03T00:38:54;3.70;72.60
74511;DHT22;62991;50.040;18.400;2023-04-03T00:41:55;3.60;73.00
74511;DHT22;62991;50.040;18.400;2023-04-03T00:47:57;3.60;73.10
74511;DHT22;62991;50.040;18.400;2023-04-03T00:51:01;3.60;72.60
74511;DHT22;62991;50.040;18.400;2023-04-03T00:54:05;3.60;72.80
74511;DHT22;62991;50.040;18.400;2023-04-03T00:57:08;3.50;72.90
74511;DHT22;62991;50.040;18.400;2023-04-03T01:00:13;3.40;73.00
74511;DHT22;62991;50.040;18.400;2023-04-03T01:03:14;3.40;72.90
74511;DHT22;62991;50.040;18.400;2023-04-03T01:06:17;3.40;72.90
74511;DHT22;62991;50.040;18.400;2023-04-03T01:09:20;3.40;73.00
74511;DHT22;62991;50.040;18.400;2023-04-03T01:12:22;3.30;73.00
74511;DHT22;62991;50.040;18.400;2023-04-03T01:15:25;3.30;73.40
74511;DHT22;62991;50.040;18.400;2023-04-03T01:18:26;3.40;73.00
74511;DHT22;62991;50.040;18.400;2023-04-03T01:24:51;3.40;72.40
74511;DHT22;62991;50.040;18.400;2023-04-03T01:27:53;3.30;72.60
74511;DHT22;62991;50.040;18.400;2023-04-03T01:34:03;3.20;72.80
74511;DHT22;62991;50.040;18.400;2023-04-03T01:37:04;3.20;72.60
74511;DHT22;62991;50.040;18.400;2023-04-03T01:40:05;3.30;72.40
74511;DHT22;62991;50.040;18.400;2023-04-03T01:43:07;3.30;72.10
74511;DHT22;62991;50.040;18.400;2023-04-03T01:46:08;3.30;72.50
74511;DHT22;62991;50.040;18.400;2023-04-03T01:49:09;3.20;72.30
74511;DHT22;62991;50.040;18.400;2023-04-03T01:52:10;3.30;72.10
74511;DHT22;62991;50.040;18.400;2023-04-03T01:55:11;3.30;71.90
74511;DHT22;62991;50.040;18.400;2023-04-03T01:58:12;3.30;72.20
74511;DHT22;62991;50.040;18.400;2023-04-03T02:01:12;3.30;72.00
74511;DHT22;62991;50.040;18.400;2023-04-03T02:04:13;3.20;72.20
74511;DHT22;62991;50.040;18.400;2023-04-03T02:07:14;3.00;72.30
74511;DHT22;62991;50.040;18.400;2023-04-03T02:10:14;3.00;72.70
74511;DHT22;62991;50.040;18.400;2023-04-03T02:13:16;3.00;72.70
74511;DHT22;62991;50.040;18.400;2023-04-03T02:16:17;3.00;72.10
74511;DHT22;62991;50.040;18.400;2023-04-03T02:19:18;2.80;71.80
74511;DHT22;62991;50.040;18.400;2023-04-03T02:22:18;2.80;72.50
74511;DHT22;62991;50.040;18.400;2023-04-03T02:25:20;2.80;72.00
74511;DHT22;62991;50.040;18.400;2023-04-03T02:28:21;2.60;72.40
74511;DHT22;62991;50.040;18.400;2023-04-03T02:31:22;2.80;72.40
74511;DHT22;62991;50.040;18.400;2023-04-03T02:34:24;2.80;72.10
74511;DHT22;62991;50.040;18.400;2023-04-03T02:37:25;2.80;71.90
74511;DHT22;62991;50.040;18.400;2023-04-03T02:40:25;2.80;72.00
74511;DHT22;62991;50.040;18.400;2023-04-03T02:43:26;2.70;71.70
74511;DHT22;62991;50.040;18.400;2023-04-03T02:46:27;2.70;71.20
74511;DHT22;62991;50.040;18.400;2023-04-03T02:49:27;2.60;70.70
74511;DHT22;62991;50.040;18.400;2023-04-03T02:52:28;2.60;71.00
74511;DHT22;62991;50.040;18.400;2023-04-03T02:55:29;2.60;70.40
74511;DHT22;62991;50.040;18.400;2023-04-03T02:58:30;2.60;70.40
74511;DHT22;62991;50.040;18.400;2023-04-03T03:01:30;2.50;70.30
74511;DHT22;62991;50.040;18.400;2023-04-03T03:04:32;2.50;70.40
74511;DHT22;62991;50.040;18.400;2023-04-03T03:07:33;2.50;69.90
74511;DHT22;62991;50.040;18.400;2023-04-03T03:10:34;2.40;69.60
74511;DHT22;62991;50.040;18.400;2023-04-03T03:13:35;2.30;69.80
74511;DHT22;62991;50.040;18.400;2023-04-03T03:16:36;2.20;70.30
74511;DHT22;62991;50.040;18.400;2023-04-03T03:19:36;2.10;70.00
74511;DHT22;62991;50.040;18.400;2023-04-03T03:22:37;2.10;70.10
74511;DHT22;62991;50.040;18.400;2023-04-03T03:25:39;2.00;69.90
74511;DHT22;62991;50.040;18.400;2023-04-03T03:28:40;1.90;70.00
74511;DHT22;62991;50.040;18.400;2023-04-03T03:31:41;1.90;69.70
74511;DHT22;62991;50.040;18.400;2023-04-03T03:34:41;2.00;69.20
74511;DHT22;62991;50.040;18.400;2023-04-03T03:37:42;1.80;69.00
74511;DHT22;62991;50.040;18.400;2023-04-03T03:40:43;1.70;68.90
74511;DHT22;62991;50.040;18.400;2023-04-03T03:43:43;1.70;69.10
74511;DHT22;62991;50.040;18.400;2023-04-03T03:46:44;1.60;69.20
74511;DHT22;62991;50.040;18.400;2023-04-03T03:49:45;1.40;69.20
74511;DHT22;62991;50.040;18.400;2023-04-03T03:52:46;1.30;69.50
74511;DHT22;62991;50.040;18.400;2023-04-03T03:55:46;1.30;69.80
74511;DHT22;62991;50.040;18.400;2023-04-03T03:58:47;1.30;68.90
74511;DHT22;62991;50.040;18.400;2023-04-03T04:01:49;1.10;69.50
74511;DHT22;62991;50.040;18.400;2023-04-03T04:04:50;1.20;69.10
74511;DHT22;62991;50.040;18.400;2023-04-03T04:07:51;1.10;69.20
74511;DHT22;62991;50.040;18.400;2023-04-03T04:10:52;1.10;69.20
74511;DHT22;62991;50.040;18.400;2023-04-03T04:13:52;1.10;69.00
74511;DHT22;62991;50.040;18.400;2023-04-03T04:16:53;1.10;68.70
74511;DHT22;62991;50.040;18.400;2023-04-03T04:19:53;1.10;68.90
74511;DHT22;62991;50.040;18.400;2023-04-03T04:22:54;1.00;68.70
74511;DHT22;62991;50.040;18.400;2023-04-03T04:25:55;1.10;68.80
74511;DHT22;62991;50.040;18.400;2023-04-03T04:28:56;1.10;68.30
74511;DHT22;62991;50.040;18.400;2023-04-03T04:31:56;1.00;68.50
74511;DHT22;62991;50.040;18.400;2023-04-03T04:34:57;1.10;68.20
74511;DHT22;62991;50.040;18.400;2023-04-03T04:37:58;1.00;67.90
74511;DHT22;62991;50.040;18.400;2023-04-03T04:40:58;1.10;67.60
74511;DHT22;62991;50.040;18.400;2023-04-03T04:43:59;1.10;67.80
74511;DHT22;62991;50.040;18.400;2023-04-03T04:47:00;1.10;67.70
74511;DHT22;62991;50.040;18.400;2023-04-03T04:50:01;1.10;67.80
74511;DHT22;62991;50.040;18.400;2023-04-03T04:53:01;1.00;68.20
74511;DHT22;62991;50.040;18.400;2023-04-03T04:56:02;0.90;68.10
74511;DHT22;62991;50.040;18.400;2023-04-03T04:59:03;0.90;68.20
74511;DHT22;62991;50.040;18.400;2023-04-03T05:02:04;0.80;68.30
74511;DHT22;62991;50.040;18.400;2023-04-03T05:05:04;0.90;68.50
74511;DHT22;62991;50.040;18.400;2023-04-03T05:08:05;0.90;68.70
74511;DHT22;62991;50.040;18.400;2023-04-03T05:11:06;1.00;68.70
74511;DHT22;62991;50.040;18.400;2023-04-03T05:14:07;1.10;68.10
74511;DHT22;62991;50.040;18.400;2023-04-03T05:17:07;1.00;68.10
74511;DHT22;62991;50.040;18.400;2023-04-03T05:20:08;0.90;68.50
74511;DHT22;62991;50.040;18.400;2023-04-03T05:23:10;1.10;68.70
74511;DHT22;62991;50.040;18.400;2023-04-03T05:26:11;1.10;68.00
74511;DHT22;62991;50.040;18.400;2023-04-03T05:29:12;1.00;68.20
74511;DHT22;62991;50.040;18.400;2023-04-03T05:32:13;1.10;68.20
74511;DHT22;62991;50.040;18.400;2023-04-03T05:35:14;1.00;67.90
74511;DHT22;62991;50.040;18.400;2023-04-03T05:38:15;1.00;68.20
74511;DHT22;62991;50.040;18.400;2023-04-03T05:41:16;1.10;68.70
74511;DHT22;62991;50.040;18.400;2023-04-03T05:44:16;1.20;67.70
74511;DHT22;62991;50.040;18.400;2023-04-03T05:47:18;1.30;67.40
74511;DHT22;62991;50.040;18.400;2023-04-03T05:50:19;1.20;67.00
74511;DHT22;62991;50.040;18.400;2023-04-03T05:53:22;1.20;67.00
74511;DHT22;62991;50.040;18.400;2023-04-03T05:56:25;1.10;67.10
74511;DHT22;62991;50.040;18.400;2023-04-03T05:59:26;1.00;66.90
74511;DHT22;62991;50.040;18.400;2023-04-03T06:02:27;1.00;67.10
74511;DHT22;62991;50.040;18.400;2023-04-03T06:05:27;1.00;67.20
74511;DHT22;62991;50.040;18.400;2023-04-03T06:08:28;1.10;66.90
74511;DHT22;62991;50.040;18.400;2023-04-03T06:11:29;1.20;66.30
74511;DHT22;62991;50.040;18.400;2023-04-03T06:14:30;1.30;66.50
74511;DHT22;62991;50.040;18.400;2023-04-03T06:17:31;1.40;65.90
74511;DHT22;62991;50.040;18.400;2023-04-03T06:20:32;1.30;65.50
74511;DHT22;62991;50.040;18.400;2023-04-03T06:23:32;1.40;65.60
74511;DHT22;62991;50.040;18.400;2023-04-03T06:26:34;1.50;65.50
74511;DHT22;62991;50.040;18.400;2023-04-03T06:29:35;1.50;65.20
74511;DHT22;62991;50.040;18.400;2023-04-03T06:32:35;1.50;64.80
74511;DHT22;62991;50.040;18.400;2023-04-03T06:35:36;1.50;64.20
74511;DHT22;62991;50.040;18.400;2023-04-03T06:38:39;1.50;64.20
74511;DHT22;62991;50.040;18.400;2023-04-03T06:41:39;1.70;63.80
74511;DHT22;62991;50.040;18.400;2023-04-03T06:44:40;1.70;63.90
74511;DHT22;62991;50.040;18.400;2023-04-03T06:47:41;1.80;63.10
74511;DHT22;62991;50.040;18.400;2023-04-03T06:50:42;1.70;62.20
74511;DHT22;62991;50.040;18.400;2023-04-03T06:53:43;1.70;61.90
74511;DHT22;62991;50.040;18.400;2023-04-03T06:56:43;1.70;62.50
74511;DHT22;62991;50.040;18.400;2023-04-03T06:59:44;1.90;62.70
74511;DHT22;62991;50.040;18.400;2023-04-03T07:02:45;2.20;62.40
74511;DHT22;62991;50.040;18.400;2023-04-03T07:05:46;2.30;61.10
74511;DHT22;62991;50.040;18.400;2023-04-03T07:08:48;2.30;60.80
74511;DHT22;62991;50.040;18.400;2023-04-03T07:11:49;2.40;60.60
74511;DHT22;62991;50.040;18.400;2023-04-03T07:14:50;2.40;59.70
74511;DHT22;62991;50.040;18.400;2023-04-03T07:17:51;2.30;59.50
74511;DHT22;62991;50.040;18.400;2023-04-03T07:20:52;2.40;59.80
74511;DHT22;62991;50.040;18.400;2023-04-03T07:23:53;2.50;59.90
74511;DHT22;62991;50.040;18.400;2023-04-03T07:26:53;2.50;58.40
74511;DHT22;62991;50.040;18.400;2023-04-03T07:29:54;2.50;58.60
74511;DHT22;62991;50.040;18.400;2023-04-03T07:32:56;2.50;58.90
74511;DHT22;62991;50.040;18.400;2023-04-03T07:35:57;2.60;58.80
74511;DHT22;62991;50.040;18.400;2023-04-03T07:38:58;2.70;58.10
74511;DHT22;62991;50.040;18.400;2023-04-03T07:41:59;2.80;58.10
74511;DHT22;62991;50.040;18.400;2023-04-03T07:45:01;2.90;58.10
74511;DHT22;62991;50.040;18.400;2023-04-03T07:48:02;3.00;57.60
74511;DHT22;62991;50.040;18.400;2023-04-03T07:51:04;3.10;57.30
74511;DHT22;62991;50.040;18.400;2023-04-03T07:54:05;3.20;56.40
74511;DHT22;62991;50.040;18.400;2023-04-03T07:57:05;3.20;56.00
74511;DHT22;62991;50.040;18.400;2023-04-03T08:00:07;3.20;56.20
74511;DHT22;62991;50.040;18.400;2023-04-03T08:03:10;3.10;55.40
74511;DHT22;62991;50.040;18.400;2023-04-03T08:06:11;3.00;55.70
74511;DHT22;62991;50.040;18.400;2023-04-03T08:09:14;3.10;56.40
74511;DHT22;62991;50.040;18.400;2023-04-03T08:12:15;2.90;56.40
74511;DHT22;62991;50.040;18.400;2023-04-03T08:15:16;2.80;56.30
74511;DHT22;62991;50.040;18.400;2023-04-03T08:18:17;2.60;56.40
74511;DHT22;62991;50.040;18.400;2023-04-03T08:21:18;2.40;57.30
74511;DHT22;62991;50.040;18.400;2023-04-03T08:24:19;2.40;57.70
74511;DHT22;62991;50.040;18.400;2023-04-03T08:27:20;2.30;58.00
74511;DHT22;62991;50.040;18.400;2023-04-03T08:30:21;2.10;59.10
74511;DHT22;62991;50.040;18.400;2023-04-03T08:33:22;2.20;59.30
74511;DHT22;62991;50.040;18.400;2023-04-03T08:36:28;2.40;58.90
74511;DHT22;62991;50.040;18.400;2023-04-03T08:39:29;2.70;59.00
74511;DHT22;62991;50.040;18.400;2023-04-03T08:45:50;3.00;56.00
74511;DHT22;62991;50.040;18.400;2023-04-03T08:48:51;3.20;56.10
74511;DHT22;62991;50.040;18.400;2023-04-03T08:51:54;3.30;55.10
74511;DHT22;62991;50.040;18.400;2023-04-03T08:55:00;3.50;53.70
74511;DHT22;62991;50.040;18.400;2023-04-03T08:58:09;3.80;55.10
74511;DHT22;62991;50.040;18.400;2023-04-03T09:04:22;3.90;52.50
74511;DHT22;62991;50.040;18.400;2023-04-03T09:07:36;4.20;51.90
74511;DHT22;62991;50.040;18.400;2023-04-03T09:10:40;4.10;49.00
74511;DHT22;62991;50.040;18.400;2023-04-03T09:14:07;4.10;49.50
74511;DHT22;62991;50.040;18.400;2023-04-03T09:20:42;4.90;51.50
74511;DHT22;62991;50.040;18.400;2023-04-03T09:23:51;5.10;46.80
74511;DHT22;62991;50.040;18.400;2023-04-03T09:26:59;5.00;48.50
74511;DHT22;62991;50.040;18.400;2023-04-03T09:30:00;5.00;48.20
74511;DHT22;62991;50.040;18.400;2023-04-03T09:33:00;4.90;48.30
74511;DHT22;62991;50.040;18.400;2023-04-03T09:36:02;4.70;48.20
74511;DHT22;62991;50.040;18.400;2023-04-03T09:39:17;4.50;49.80
74511;DHT22;62991;50.040;18.400;2023-04-03T09:42:21;4.30;48.70
74511;DHT22;62991;50.040;18.400;2023-04-03T09:45:30;4.30;49.80
74511;DHT22;62991;50.040;18.400;2023-04-03T09:48:30;4.60;50.20
74511;DHT22;62991;50.040;18.400;2023-04-03T09:51:31;4.50;48.60
74511;DHT22;62991;50.040;18.400;2023-04-03T09:54:37;4.50;49.60
74511;DHT22;62991;50.040;18.400;2023-04-03T09:57:40;4.60;48.30
74511;DHT22;62991;50.040;18.400;2023-04-03T10:00:41;4.80;48.60
74511;DHT22;62991;50.040;18.400;2023-04-03T10:03:41;4.80;46.80
74511;DHT22;62991;50.040;18.400;2023-04-03T10:06:54;5.00;49.90
74511;DHT22;62991;50.040;18.400;2023-04-03T10:13:28;4.90;45.00
74511;DHT22;62991;50.040;18.400;2023-04-03T10:16:41;4.50;44.80
74511;DHT22;62991;50.040;18.400;2023-04-03T10:29:54;4.90;44.30
74511;DHT22;62991;50.040;18.400;2023-04-03T10:33:08;4.90;43.60
74511;DHT22;62991;50.040;18.400;2023-04-03T10:39:45;5.10;45.40
74511;DHT22;62991;50.040;18.400;2023-04-03T10:42:59;5.30;44.40
74511;DHT22;62991;50.040;18.400;2023-04-03T10:46:15;5.80;44.10
74511;DHT22;62991;50.040;18.400;2023-04-03T10:52:55;6.30;39.60
74511;DHT22;62991;50.040;18.400;2023-04-03T10:59:23;6.80;41.30
74511;DHT22;62991;50.040;18.400;2023-04-03T11:02:31;7.30;40.80
74511;DHT22;62991;50.040;18.400;2023-04-03T11:08:46;7.20;40.80
74511;DHT22;62991;50.040;18.400;2023-04-03T11:12:00;6.90;40.40
74511;DHT22;62991;50.040;18.400;2023-04-03T11:15:03;6.50;40.10
74511;DHT22;62991;50.040;18.400;2023-04-03T11:18:17;6.50;40.80
74511;DHT22;62991;50.040;18.400;2023-04-03T11:21:39;6.40;40.10
74511;DHT22;62991;50.040;18.400;2023-04-03T11:24:43;6.10;40.60
74511;DHT22;62991;50.040;18.400;2023-04-03T11:27:56;6.90;43.10
74511;DHT22;62991;50.040;18.400;2023-04-03T11:37:40;8.30;37.20
74511;DHT22;62991;50.040;18.400;2023-04-03T11:40:44;8.40;39.00
74511;DHT22;62991;50.040;18.400;2023-04-03T11:43:58;7.80;36.70
74511;DHT22;62991;50.040;18.400;2023-04-03T11:47:01;7.70;38.20
74511;DHT22;62991;50.040;18.400;2023-04-03T11:50:04;7.60;37.80
74511;DHT22;62991;50.040;18.400;2023-04-03T11:56:35;8.10;38.50
74511;DHT22;62991;50.040;18.400;2023-04-03T11:59:39;8.10;36.80
74511;DHT22;62991;50.040;18.400;2023-04-03T12:02:40;7.40;37.50
74511;DHT22;62991;50.040;18.400;2023-04-03T12:05:41;7.20;41.00
74511;DHT22;62991;50.040;18.400;2023-04-03T12:11:43;8.20;40.10
74511;DHT22;62991;50.040;18.400;2023-04-03T12:14:44;8.60;40.50
74511;DHT22;62991;50.040;18.400;2023-04-03T12:17:44;9.20;39.30
74511;DHT22;62991;50.040;18.400;2023-04-03T12:30:25;10.20;40.30
74511;DHT22;62991;50.040;18.400;2023-04-03T12:36:59;10.90;34.30
74511;DHT22;62991;50.040;18.400;2023-04-03T12:40:05;10.10;33.80
74511;DHT22;62991;50.040;18.400;2023-04-03T12:46:24;9.10;35.60
74511;DHT22;62991;50.040;18.400;2023-04-03T12:49:33;8.80;36.30
74511;DHT22;62991;50.040;18.400;2023-04-03T12:52:41;9.10;36.70
74511;DHT22;62991;50.040;18.400;2023-04-03T12:55:44;9.30;36.30
74511;DHT22;62991;50.040;18.400;2023-04-03T12:58:44;9.40;37.40
74511;DHT22;62991;50.040;18.400;2023-04-03T13:01:54;8.70;35.30
74511;DHT22;62991;50.040;18.400;2023-04-03T13:04:58;8.20;36.10
74511;DHT22;62991;50.040;18.400;2023-04-03T13:08:05;8.30;37.90
74511;DHT22;62991;50.040;18.400;2023-04-03T13:11:11;8.50;36.30
74511;DHT22;62991;50.040;18.400;2023-04-03T13:14:20;8.60;35.10
74511;DHT22;62991;50.040;18.400;2023-04-03T13:17:22;8.40;36.30
74511;DHT22;62991;50.040;18.400;2023-04-03T13:20:26;8.00;36.40
74511;DHT22;62991;50.040;18.400;2023-04-03T13:23:29;8.30;37.80
74511;DHT22;62991;50.040;18.400;2023-04-03T13:26:32;9.30;38.20
74511;DHT22;62991;50.040;18.400;2023-04-03T13:29:36;10.10;35.50
74511;DHT22;62991;50.040;18.400;2023-04-03T13:32:37;9.10;33.70
74511;DHT22;62991;50.040;18.400;2023-04-03T13:35:39;8.50;34.90
74511;DHT22;62991;50.040;18.400;2023-04-03T13:38:40;12.90;32.40
74511;DHT22;62991;50.040;18.400;2023-04-03T13:41:53;19.60;26.20
74511;DHT22;62991;50.040;18.400;2023-04-03T13:45:18;19.70;26.10
74511;DHT22;62991;50.040;18.400;2023-04-03T13:48:20;16.90;26.30
74511;DHT22;62991;50.040;18.400;2023-04-03T13:51:26;12.60;29.20
74511;DHT22;62991;50.040;18.400;2023-04-03T13:54:38;10.10;31.90
74511;DHT22;62991;50.040;18.400;2023-04-03T13:57:58;17.40;27.90
74511;DHT22;62991;50.040;18.400;2023-04-03T14:01:19;22.20;23.10
74511;DHT22;62991;50.040;18.400;2023-04-03T14:04:29;18.20;24.20
74511;DHT22;62991;50.040;18.400;2023-04-03T14:07:30;13.70;27.40
74511;DHT22;62991;50.040;18.400;2023-04-03T14:10:31;11.70;30.30
74511;DHT22;62991;50.040;18.400;2023-04-03T14:13:32;15.60;27.10
74511;DHT22;62991;50.040;18.400;2023-04-03T14:16:38;18.60;24.60
74511;DHT22;62991;50.040;18.400;2023-04-03T14:19:39;15.50;26.70
74511;DHT22;62991;50.040;18.400;2023-04-03T14:22:41;12.40;28.90
74511;DHT22;62991;50.040;18.400;2023-04-03T14:25:42;10.60;31.70
74511;DHT22;62991;50.040;18.400;2023-04-03T14:28:44;9.60;33.00
74511;DHT22;62991;50.040;18.400;2023-04-03T14:31:47;16.20;28.60
74511;DHT22;62991;50.040;18.400;2023-04-03T14:34:49;14.20;28.10
74511;DHT22;62991;50.040;18.400;2023-04-03T14:37:51;11.30;30.60
74511;DHT22;62991;50.040;18.400;2023-04-03T14:40:53;9.20;32.30
74511;DHT22;62991;50.040;18.400;2023-04-03T14:43:54;8.20;33.60
74511;DHT22;62991;50.040;18.400;2023-04-03T14:46:55;7.70;35.10
74511;DHT22;62991;50.040;18.400;2023-04-03T14:49:57;11.20;32.00
74511;DHT22;62991;50.040;18.400;2023-04-03T14:52:58;13.30;29.20
74511;DHT22;62991;50.040;18.400;2023-04-03T14:55:59;11.20;30.40
74511;DHT22;62991;50.040;18.400;2023-04-03T14:59:01;9.40;31.90
74511;DHT22;62991;50.040;18.400;2023-04-03T15:02:01;8.40;33.10
74511;DHT22;62991;50.040;18.400;2023-04-03T15:05:05;7.60;35.40
74511;DHT22;62991;50.040;18.400;2023-04-03T15:08:21;9.60;33.90
74511;DHT22;62991;50.040;18.400;2023-04-03T15:11:22;9.60;32.60
74511;DHT22;62991;50.040;18.400;2023-04-03T15:14:23;8.60;33.40
74511;DHT22;62991;50.040;18.400;2023-04-03T15:17:24;7.70;35.70
74511;DHT22;62991;50.040;18.400;2023-04-03T15:20:26;7.40;36.10
74511;DHT22;62991;50.040;18.400;2023-04-03T15:23:27;7.20;36.50
74511;DHT22;62991;50.040;18.400;2023-04-03T15:26:30;7.00;37.00
74511;DHT22;62991;50.040;18.400;2023-04-03T15:29:31;6.70;38.00
74511;DHT22;62991;50.040;18.400;2023-04-03T15:32:32;6.60;38.30
74511;DHT22;62991;50.040;18.400;2023-04-03T15:35:34;6.50;38.10
74511;DHT22;62991;50.040;18.400;2023-04-03T15:38:34;6.50;36.80
74511;DHT22;62991;50.040;18.400;2023-04-03T15:41:35;6.30;37.00
74511;DHT22;62991;50.040;18.400;2023-04-03T15:44:36;6.20;38.30
74511;DHT22;62991;50.040;18.400;2023-04-03T15:47:37;5.80;37.60
74511;DHT22;62991;50.040;18.400;2023-04-03T15:50:38;5.60;38.10
74511;DHT22;62991;50.040;18.400;2023-04-03T15:53:39;5.50;39.40
74511;DHT22;62991;50.040;18.400;2023-04-03T15:56:40;5.40;40.10
74511;DHT22;62991;50.040;18.400;2023-04-03T15:59:40;5.40;40.20
74511;DHT22;62991;50.040;18.400;2023-04-03T16:02:44;5.50;40.50
74511;DHT22;62991;50.040;18.400;2023-04-03T16:05:46;5.20;40.90
74511;DHT22;62991;50.040;18.400;2023-04-03T16:08:47;5.10;41.60
74511;DHT22;62991;50.040;18.400;2023-04-03T16:11:49;5.10;41.90
74511;DHT22;62991;50.040;18.400;2023-04-03T16:14:50;5.10;41.30
74511;DHT22;62991;50.040;18.400;2023-04-03T16:17:52;4.90;41.10
74511;DHT22;62991;50.040;18.400;2023-04-03T16:20:53;4.90;40.80
74511;DHT22;62991;50.040;18.400;2023-04-03T16:23:57;4.80;41.00
74511;DHT22;62991;50.040;18.400;2023-04-03T16:26:58;4.90;40.80
74511;DHT22;62991;50.040;18.400;2023-04-03T16:29:59;4.90;41.00
74511;DHT22;62991;50.040;18.400;2023-04-03T16:33:00;4.80;41.20
74511;DHT22;62991;50.040;18.400;2023-04-03T16:36:00;4.60;41.80
74511;DHT22;62991;50.040;18.400;2023-04-03T16:39:02;4.60;42.20
74511;DHT22;62991;50.040;18.400;2023-04-03T16:42:02;4.50;42.40
74511;DHT22;62991;50.040;18.400;2023-04-03T16:45:04;4.30;42.90
74511;DHT22;62991;50.040;18.400;2023-04-03T16:48:06;4.20;43.40
74511;DHT22;62991;50.040;18.400;2023-04-03T16:51:06;4.10;43.90
74511;DHT22;62991;50.040;18.400;2023-04-03T16:54:07;4.20;43.80
74511;DHT22;62991;50.040;18.400;2023-04-03T16:57:10;4.30;44.10
74511;DHT22;62991;50.040;18.400;2023-04-03T17:00:11;4.20;43.50
74511;DHT22;62991;50.040;18.400;2023-04-03T17:03:12;4.00;43.30
74511;DHT22;62991;50.040;18.400;2023-04-03T17:06:19;3.90;43.20
74511;DHT22;62991;50.040;18.400;2023-04-03T17:09:20;3.90;43.40
74511;DHT22;62991;50.040;18.400;2023-04-03T17:12:21;3.90;43.50
74511;DHT22;62991;50.040;18.400;2023-04-03T17:15:22;3.80;43.60
74511;DHT22;62991;50.040;18.400;2023-04-03T17:18:24;3.80;44.00
74511;DHT22;62991;50.040;18.400;2023-04-03T17:21:24;3.90;44.10
74511;DHT22;62991;50.040;18.400;2023-04-03T17:24:26;3.90;43.50
74511;DHT22;62991;50.040;18.400;2023-04-03T17:27:27;3.90;44.00
74511;DHT22;62991;50.040;18.400;2023-04-03T17:30:28;3.80;44.50
74511;DHT22;62991;50.040;18.400;2023-04-03T17:33:29;3.90;44.60
74511;DHT22;62991;50.040;18.400;2023-04-03T17:36:33;3.90;44.70
74511;DHT22;62991;50.040;18.400;2023-04-03T17:39:33;3.90;44.40
74511;DHT22;62991;50.040;18.400;2023-04-03T17:42:34;3.90;44.10
74511;DHT22;62991;50.040;18.400;2023-04-03T17:45:35;3.70;44.00
74511;DHT22;62991;50.040;18.400;2023-04-03T17:48:38;3.70;44.10
74511;DHT22;62991;50.040;18.400;2023-04-03T17:51:42;3.70;44.00
74511;DHT22;62991;50.040;18.400;2023-04-03T17:54:42;3.70;44.00
74511;DHT22;62991;50.040;18.400;2023-04-03T17:57:43;3.90;44.40
74511;DHT22;62991;50.040;18.400;2023-04-03T18:00:44;3.80;44.30
74511;DHT22;62991;50.040;18.400;2023-04-03T18:03:46;3.70;44.80
74511;DHT22;62991;50.040;18.400;2023-04-03T18:06:51;3.70;44.60
74511;DHT22;62991;50.040;18.400;2023-04-03T18:09:53;3.70;44.80
74511;DHT22;62991;50.040;18.400;2023-04-03T18:12:56;3.80;44.90
74511;DHT22;62991;50.040;18.400;2023-04-03T18:15:57;3.60;44.90
74511;DHT22;62991;50.040;18.400;2023-04-03T18:18:57;3.50;45.10
74511;DHT22;62991;50.040;18.400;2023-04-03T18:22:12;3.40;45.00
74511;DHT22;62991;50.040;18.400;2023-04-03T18:25:13;3.40;45.30
74511;DHT22;62991;50.040;18.400;2023-04-03T18:28:16;3.40;45.40
74511;DHT22;62991;50.040;18.400;2023-04-03T18:31:17;3.40;45.60
74511;DHT22;62991;50.040;18.400;2023-04-03T18:34:18;3.50;45.40
74511;DHT22;62991;50.040;18.400;2023-04-03T18:37:19;3.60;45.50
74511;DHT22;62991;50.040;18.400;2023-04-03T18:40:21;3.60;45.00
74511;DHT22;62991;50.040;18.400;2023-04-03T18:43:23;3.50;45.00
74511;DHT22;62991;50.040;18.400;2023-04-03T18:46:26;3.50;45.10
74511;DHT22;62991;50.040;18.400;2023-04-03T18:49:28;3.50;45.00
74511;DHT22;62991;50.040;18.400;2023-04-03T18:52:31;3.40;44.90
74511;DHT22;62991;50.040;18.400;2023-04-03T18:55:31;3.50;44.80
74511;DHT22;62991;50.040;18.400;2023-04-03T18:58:32;3.50;44.80
74511;DHT22;62991;50.040;18.400;2023-04-03T19:01:33;3.50;45.10
74511;DHT22;62991;50.040;18.400;2023-04-03T19:04:35;3.50;45.10
74511;DHT22;62991;50.040;18.400;2023-04-03T19:07:36;3.40;44.80
74511;DHT22;62991;50.040;18.400;2023-04-03T19:10:36;3.40;44.90
74511;DHT22;62991;50.040;18.400;2023-04-03T19:13:37;3.40;44.80
74511;DHT22;62991;50.040;18.400;2023-04-03T19:16:38;3.30;45.00
74511;DHT22;62991;50.040;18.400;2023-04-03T19:19:39;3.40;45.20
74511;DHT22;62991;50.040;18.400;2023-04-03T19:22:40;3.40;45.20
74511;DHT22;62991;50.040;18.400;2023-04-03T19:25:41;3.30;45.40
74511;DHT22;62991;50.040;18.400;2023-04-03T19:28:41;3.30;45.40
74511;DHT22;62991;50.040;18.400;2023-04-03T19:31:43;3.20;45.60
74511;DHT22;62991;50.040;18.400;2023-04-03T19:34:44;3.10;46.00
74511;DHT22;62991;50.040;18.400;2023-04-03T19:37:44;3.10;46.10
74511;DHT22;62991;50.040;18.400;2023-04-03T19:40:50;3.10;46.50
74511;DHT22;62991;50.040;18.400;2023-04-03T19:43:51;3.00;46.60
74511;DHT22;62991;50.040;18.400;2023-04-03T19:46:53;3.00;47.20
74511;DHT22;62991;50.040;18.400;2023-04-03T19:49:53;3.00;47.40
74511;DHT22;62991;50.040;18.400;2023-04-03T19:52:54;3.00;47.40
74511;DHT22;62991;50.040;18.400;2023-04-03T19:55:55;3.00;47.90
74511;DHT22;62991;50.040;18.400;2023-04-03T19:58:56;2.90;48.00
74511;DHT22;62991;50.040;18.400;2023-04-03T20:01:57;2.80;48.20
74511;DHT22;62991;50.040;18.400;2023-04-03T20:04:58;2.80;48.50
74511;DHT22;62991;50.040;18.400;2023-04-03T20:07:58;2.80;48.40
74511;DHT22;62991;50.040;18.400;2023-04-03T20:10:59;2.80;49.00
74511;DHT22;62991;50.040;18.400;2023-04-03T20:14:00;2.80;48.80
74511;DHT22;62991;50.040;18.400;2023-04-03T20:17:01;2.70;49.10
74511;DHT22;62991;50.040;18.400;2023-04-03T20:20:02;2.70;49.30
74511;DHT22;62991;50.040;18.400;2023-04-03T20:23:03;2.70;49.40
74511;DHT22;62991;50.040;18.400;2023-04-03T20:26:06;2.70;49.70
74511;DHT22;62991;50.040;18.400;2023-04-03T20:29:07;2.60;50.00